sensor_id;sensor_type;location;lat;lon;timestamp;temperature;humidity
48206;DHT22;33995;48.202;16.260;2022-12-20T00:00:45;-1.10;99.90
48206;DHT22;33995;48.202;16.260;2022-12-20T00:03:12;-1.10;99.90
48206;DHT22;33995;48.202;16.260;2022-12-20T00:05:42;-1.00;99.90
48206;DHT22;33995;48.202;16.260;2022-12-20T00:08:11;-1.00;99.90
48206;DHT22;33995;48.202;16.260;2022-12-20T00:10:42;-1.00;99.90
48206;DHT22;33995;48.202;16.260;2022-12-20T00:13:12;-1.00;99.90
48206;DHT22;33995;48.202;16.260;2022-12-20T00:15:44;-1.00;99.90
48206;DHT22;33995;48.202;16.260;2022-12-20T00:18:11;-1.00;99.90
48206;DHT22;33995;48.202;16.260;2022-12-20T00:20:39;-1.00;99.90
48206;DHT22;33995;48.202;16.260;2022-12-20T00:23:06;-0.90;99.90
48206;DHT22;33995;48.202;16.260;2022-12-20T00:25:34;-1.00;99.90
48206;DHT22;33995;48.202;16.260;2022-12-20T00:28:01;-1.00;99.90
48206;DHT22;33995;48.202;16.260;2022-12-20T00:30:31;-1.00;99.90
48206;DHT22;33995;48.202;16.260;2022-12-20T00:33:00;-1.10;99.90
48206;DHT22;33995;48.202;16.260;2022-12-20T00:35:31;-1.10;99.90
48206;DHT22;33995;48.202;16.260;2022-12-20T00:37:59;-1.10;99.90
48206;DHT22;33995;48.202;16.260;2022-12-20T00:40:29;-1.00;99.90
48206;DHT22;33995;48.202;16.260;2022-12-20T00:42:58;-1.00;99.90
48206;DHT22;33995;48.202;16.260;2022-12-20T00:45:28;-1.10;99.90
48206;DHT22;33995;48.202;16.260;2022-12-20T00:47:58;-1.00;99.90
48206;DHT22;33995;48.202;16.260;2022-12-20T00:50:25;-0.90;99.90
48206;DHT22;33995;48.202;16.260;2022-12-20T00:52:54;-1.00;99.90
48206;DHT22;33995;48.202;16.260;2022-12-20T00:55:26;-1.00;99.90
48206;DHT22;33995;48.202;16.260;2022-12-20T00:57:55;-1.00;99.90
48206;DHT22;33995;48.202;16.260;2022-12-20T01:00:23;-0.90;99.90
48206;DHT22;33995;48.202;16.260;2022-12-20T01:02:52;-1.00;99.90
48206;DHT22;33995;48.202;16.260;2022-12-20T01:05:20;-0.90;99.90
48206;DHT22;33995;48.202;16.260;2022-12-20T01:07:52;-1.00;99.90
48206;DHT22;33995;48.202;16.260;2022-12-20T01:10:24;-1.00;99.90
48206;DHT22;33995;48.202;16.260;2022-12-20T01:12:57;-1.10;99.90
48206;DHT22;33995;48.202;16.260;2022-12-20T01:15:28;-1.00;99.90
48206;DHT22;33995;48.202;16.260;2022-12-20T01:17:56;-1.00;99.90
48206;DHT22;33995;48.202;16.260;2022-12-20T01:20:24;-0.90;99.90
48206;DHT22;33995;48.202;16.260;2022-12-20T01:22:55;-0.90;99.90
48206;DHT22;33995;48.202;16.260;2022-12-20T01:25:22;-1.00;99.90
48206;DHT22;33995;48.202;16.260;2022-12-20T01:27:51;-1.00;99.90
48206;DHT22;33995;48.202;16.260;2022-12-20T01:30:30;-1.00;99.90
48206;DHT22;33995;48.202;16.260;2022-12-20T01:32:59;-1.10;99.90
48206;DHT22;33995;48.202;16.260;2022-12-20T01:35:26;-1.00;99.90
48206;DHT22;33995;48.202;16.260;2022-12-20T01:37:55;-1.10;99.90
48206;DHT22;33995;48.202;16.260;2022-12-20T01:40:24;-1.00;99.90
48206;DHT22;33995;48.202;16.260;2022-12-20T01:42:53;-1.10;99.90
48206;DHT22;33995;48.202;16.260;2022-12-20T01:45:27;-1.00;99.90
48206;DHT22;33995;48.202;16.260;2022-12-20T01:47:59;-1.10;99.90
48206;DHT22;33995;48.202;16.260;2022-12-20T01:50:29;-1.00;99.90
48206;DHT22;33995;48.202;16.260;2022-12-20T01:53:00;-1.00;99.90
48206;DHT22;33995;48.202;16.260;2022-12-20T01:55:42;-1.00;99.90
48206;DHT22;33995;48.202;16.260;2022-12-20T01:58:11;-0.90;99.90
48206;DHT22;33995;48.202;16.260;2022-12-20T02:00:40;-1.00;99.90
48206;DHT22;33995;48.202;16.260;2022-12-20T02:03:10;-0.90;99.90
48206;DHT22;33995;48.202;16.260;2022-12-20T02:05:42;-0.90;99.90
48206;DHT22;33995;48.202;16.260;2022-12-20T02:08:13;-1.00;99.90
48206;DHT22;33995;48.202;16.260;2022-12-20T02:14:28;-0.90;99.90
48206;DHT22;33995;48.202;16.260;2022-12-20T02:26:44;-0.80;99.90
48206;DHT22;33995;48.202;16.260;2022-12-20T02:33:09;-0.90;99.90
48206;DHT22;33995;48.202;16.260;2022-12-20T02:35:40;-0.90;99.90
48206;DHT22;33995;48.202;16.260;2022-12-20T02:38:33;-0.90;99.90
48206;DHT22;33995;48.202;16.260;2022-12-20T02:41:17;-0.90;99.90
48206;DHT22;33995;48.202;16.260;2022-12-20T02:44:00;-0.90;99.90
48206;DHT22;33995;48.202;16.260;2022-12-20T02:47:08;-0.90;99.90
48206;DHT22;33995;48.202;16.260;2022-12-20T02:49:37;-0.80;99.90
48206;DHT22;33995;48.202;16.260;2022-12-20T02:52:09;-0.90;99.90
48206;DHT22;33995;48.202;16.260;2022-12-20T02:54:43;-0.90;99.90
48206;DHT22;33995;48.202;16.260;2022-12-20T02:57:41;-1.00;99.90
48206;DHT22;33995;48.202;16.260;2022-12-20T03:00:17;-0.90;99.90
48206;DHT22;33995;48.202;16.260;2022-12-20T03:02:46;-0.80;99.90
48206;DHT22;33995;48.202;16.260;2022-12-20T03:05:42;-0.80;99.90
48206;DHT22;33995;48.202;16.260;2022-12-20T03:08:10;-0.80;99.90
48206;DHT22;33995;48.202;16.260;2022-12-20T03:10:46;-0.70;99.90
48206;DHT22;33995;48.202;16.260;2022-12-20T03:13:15;-0.80;99.90
48206;DHT22;33995;48.202;16.260;2022-12-20T03:15:52;-0.80;99.90
48206;DHT22;33995;48.202;16.260;2022-12-20T03:18:28;-0.70;99.90
48206;DHT22;33995;48.202;16.260;2022-12-20T03:20:59;-0.70;99.90
48206;DHT22;33995;48.202;16.260;2022-12-20T03:23:29;-0.80;99.90
48206;DHT22;33995;48.202;16.260;2022-12-20T03:26:01;-0.80;99.90
48206;DHT22;33995;48.202;16.260;2022-12-20T03:28:35;-0.90;99.90
48206;DHT22;33995;48.202;16.260;2022-12-20T03:31:06;-0.90;99.90
48206;DHT22;33995;48.202;16.260;2022-12-20T03:33:43;-0.80;99.90
48206;DHT22;33995;48.202;16.260;2022-12-20T03:36:11;-0.80;99.90
48206;DHT22;33995;48.202;16.260;2022-12-20T03:38:39;-0.90;99.90
48206;DHT22;33995;48.202;16.260;2022-12-20T03:41:08;-0.70;99.90
48206;DHT22;33995;48.202;16.260;2022-12-20T03:43:36;-0.70;99.90
48206;DHT22;33995;48.202;16.260;2022-12-20T03:46:05;-0.80;99.90
48206;DHT22;33995;48.202;16.260;2022-12-20T03:48:37;-0.80;99.90
48206;DHT22;33995;48.202;16.260;2022-12-20T03:51:12;-0.80;99.90
48206;DHT22;33995;48.202;16.260;2022-12-20T03:53:41;-0.70;99.90
48206;DHT22;33995;48.202;16.260;2022-12-20T03:56:10;-0.80;99.90
48206;DHT22;33995;48.202;16.260;2022-12-20T03:58:40;-0.70;99.90
48206;DHT22;33995;48.202;16.260;2022-12-20T04:01:25;-0.80;99.90
48206;DHT22;33995;48.202;16.260;2022-12-20T04:03:55;-0.80;99.90
48206;DHT22;33995;48.202;16.260;2022-12-20T04:06:24;-0.70;99.90
48206;DHT22;33995;48.202;16.260;2022-12-20T04:08:55;-0.80;99.90
48206;DHT22;33995;48.202;16.260;2022-12-20T04:11:28;-0.70;99.90
48206;DHT22;33995;48.202;16.260;2022-12-20T04:14:05;-0.80;99.90
48206;DHT22;33995;48.202;16.260;2022-12-20T04:16:35;-0.90;99.90
48206;DHT22;33995;48.202;16.260;2022-12-20T04:19:08;-0.80;99.90
48206;DHT22;33995;48.202;16.260;2022-12-20T04:21:43;-0.80;99.90
48206;DHT22;33995;48.202;16.260;2022-12-20T04:24:13;-0.70;99.90
48206;DHT22;33995;48.202;16.260;2022-12-20T04:26:49;-0.70;99.90
48206;DHT22;33995;48.202;16.260;2022-12-20T04:29:21;-0.70;99.90
48206;DHT22;33995;48.202;16.260;2022-12-20T04:31:51;-0.70;99.90
48206;DHT22;33995;48.202;16.260;2022-12-20T04:34:22;-0.70;99.90
48206;DHT22;33995;48.202;16.260;2022-12-20T04:36:52;-0.80;99.90
48206;DHT22;33995;48.202;16.260;2022-12-20T04:39:32;-0.80;99.90
48206;DHT22;33995;48.202;16.260;2022-12-20T04:42:22;-0.70;99.90
48206;DHT22;33995;48.202;16.260;2022-12-20T04:44:54;-0.70;99.90
48206;DHT22;33995;48.202;16.260;2022-12-20T04:47:25;-0.80;99.90
48206;DHT22;33995;48.202;16.260;2022-12-20T04:49:54;-0.70;99.90
48206;DHT22;33995;48.202;16.260;2022-12-20T04:52:22;-0.70;99.90
48206;DHT22;33995;48.202;16.260;2022-12-20T04:55:17;-0.70;99.90
48206;DHT22;33995;48.202;16.260;2022-12-20T04:57:44;-0.80;99.90
48206;DHT22;33995;48.202;16.260;2022-12-20T05:00:12;-0.80;99.90
48206;DHT22;33995;48.202;16.260;2022-12-20T05:02:45;-0.80;99.90
48206;DHT22;33995;48.202;16.260;2022-12-20T05:05:17;-0.70;99.90
48206;DHT22;33995;48.202;16.260;2022-12-20T05:08:03;-0.70;99.90
48206;DHT22;33995;48.202;16.260;2022-12-20T05:10:46;-0.60;99.90
48206;DHT22;33995;48.202;16.260;2022-12-20T05:13:15;-0.70;99.90
48206;DHT22;33995;48.202;16.260;2022-12-20T05:15:51;-0.70;99.90
48206;DHT22;33995;48.202;16.260;2022-12-20T05:18:27;-0.60;99.90
48206;DHT22;33995;48.202;16.260;2022-12-20T05:21:01;-0.70;99.90
48206;DHT22;33995;48.202;16.260;2022-12-20T05:23:54;-0.80;99.90
48206;DHT22;33995;48.202;16.260;2022-12-20T05:27:06;-0.80;99.90
48206;DHT22;33995;48.202;16.260;2022-12-20T05:29:42;-0.70;99.90
48206;DHT22;33995;48.202;16.260;2022-12-20T05:32:11;-0.70;99.90
48206;DHT22;33995;48.202;16.260;2022-12-20T05:34:42;-0.70;99.90
48206;DHT22;33995;48.202;16.260;2022-12-20T05:37:11;-0.80;99.90
48206;DHT22;33995;48.202;16.260;2022-12-20T05:39:40;-0.80;99.90
48206;DHT22;33995;48.202;16.260;2022-12-20T05:42:16;-0.70;99.90
48206;DHT22;33995;48.202;16.260;2022-12-20T05:44:51;-0.70;99.90
48206;DHT22;33995;48.202;16.260;2022-12-20T05:47:24;-0.70;99.90
48206;DHT22;33995;48.202;16.260;2022-12-20T05:50:01;-0.70;99.90
48206;DHT22;33995;48.202;16.260;2022-12-20T05:52:37;-0.70;99.90
48206;DHT22;33995;48.202;16.260;2022-12-20T05:55:07;-0.70;99.90
48206;DHT22;33995;48.202;16.260;2022-12-20T05:57:36;-0.70;99.90
48206;DHT22;33995;48.202;16.260;2022-12-20T06:00:17;-0.70;99.90
48206;DHT22;33995;48.202;16.260;2022-12-20T06:02:49;-0.70;99.90
48206;DHT22;33995;48.202;16.260;2022-12-20T06:05:22;-0.70;99.90
48206;DHT22;33995;48.202;16.260;2022-12-20T06:07:54;-0.70;99.90
48206;DHT22;33995;48.202;16.260;2022-12-20T06:10:24;-0.70;99.90
48206;DHT22;33995;48.202;16.260;2022-12-20T06:12:58;-0.70;99.90
48206;DHT22;33995;48.202;16.260;2022-12-20T06:15:42;-0.80;99.90
48206;DHT22;33995;48.202;16.260;2022-12-20T06:18:11;-0.70;99.90
48206;DHT22;33995;48.202;16.260;2022-12-20T06:20:41;-0.80;99.90
48206;DHT22;33995;48.202;16.260;2022-12-20T06:23:17;-0.80;99.90
48206;DHT22;33995;48.202;16.260;2022-12-20T06:25:55;-0.80;99.90
48206;DHT22;33995;48.202;16.260;2022-12-20T06:28:34;-0.80;99.90
48206;DHT22;33995;48.202;16.260;2022-12-20T06:31:02;-0.80;99.90
48206;DHT22;33995;48.202;16.260;2022-12-20T06:33:39;-0.80;99.90
48206;DHT22;33995;48.202;16.260;2022-12-20T06:36:07;-0.80;99.90
48206;DHT22;33995;48.202;16.260;2022-12-20T06:38:40;-0.70;99.90
48206;DHT22;33995;48.202;16.260;2022-12-20T06:41:10;-0.60;99.90
48206;DHT22;33995;48.202;16.260;2022-12-20T06:43:39;-0.60;99.90
48206;DHT22;33995;48.202;16.260;2022-12-20T06:46:11;-0.80;99.90
48206;DHT22;33995;48.202;16.260;2022-12-20T06:51:22;-0.70;99.90
48206;DHT22;33995;48.202;16.260;2022-12-20T06:53:52;-0.80;99.90
48206;DHT22;33995;48.202;16.260;2022-12-20T06:56:22;-0.80;99.90
48206;DHT22;33995;48.202;16.260;2022-12-20T06:58:51;-0.80;99.90
48206;DHT22;33995;48.202;16.260;2022-12-20T07:01:19;-0.80;99.90
48206;DHT22;33995;48.202;16.260;2022-12-20T07:03:49;-0.80;99.90
48206;DHT22;33995;48.202;16.260;2022-12-20T07:06:18;-0.80;99.90
48206;DHT22;33995;48.202;16.260;2022-12-20T07:08:50;-0.80;99.90
48206;DHT22;33995;48.202;16.260;2022-12-20T07:11:17;-0.70;99.90
48206;DHT22;33995;48.202;16.260;2022-12-20T07:13:45;-0.60;99.90
48206;DHT22;33995;48.202;16.260;2022-12-20T07:16:13;-0.60;99.90
48206;DHT22;33995;48.202;16.260;2022-12-20T07:18:42;-0.80;99.90
48206;DHT22;33995;48.202;16.260;2022-12-20T07:21:11;-0.70;99.90
48206;DHT22;33995;48.202;16.260;2022-12-20T07:23:43;-0.70;99.90
48206;DHT22;33995;48.202;16.260;2022-12-20T07:26:15;-0.70;99.90
48206;DHT22;33995;48.202;16.260;2022-12-20T07:28:45;-0.70;99.90
48206;DHT22;33995;48.202;16.260;2022-12-20T07:31:13;-0.60;99.90
48206;DHT22;33995;48.202;16.260;2022-12-20T07:33:41;-0.60;99.90
48206;DHT22;33995;48.202;16.260;2022-12-20T07:36:12;-0.80;99.90
48206;DHT22;33995;48.202;16.260;2022-12-20T07:38:41;-0.70;99.90
48206;DHT22;33995;48.202;16.260;2022-12-20T07:41:14;-0.70;99.90
48206;DHT22;33995;48.202;16.260;2022-12-20T07:43:42;-0.70;99.90
48206;DHT22;33995;48.202;16.260;2022-12-20T07:46:14;-0.70;99.90
48206;DHT22;33995;48.202;16.260;2022-12-20T07:48:42;-0.70;99.90
48206;DHT22;33995;48.202;16.260;2022-12-20T07:51:27;-0.70;99.90
48206;DHT22;33995;48.202;16.260;2022-12-20T07:54:09;-0.60;99.90
48206;DHT22;33995;48.202;16.260;2022-12-20T07:56:46;-0.10;99.90
48206;DHT22;33995;48.202;16.260;2022-12-20T07:59:20;-0.20;99.90
48206;DHT22;33995;48.202;16.260;2022-12-20T08:01:54;-0.30;99.90
48206;DHT22;33995;48.202;16.260;2022-12-20T08:04:33;-0.50;99.90
48206;DHT22;33995;48.202;16.260;2022-12-20T08:07:05;-0.60;99.90
48206;DHT22;33995;48.202;16.260;2022-12-20T08:09:39;-0.50;99.90
48206;DHT22;33995;48.202;16.260;2022-12-20T08:12:14;-0.50;99.90
48206;DHT22;33995;48.202;16.260;2022-12-20T08:14:43;-0.50;99.90
48206;DHT22;33995;48.202;16.260;2022-12-20T08:17:12;-0.50;99.90
48206;DHT22;33995;48.202;16.260;2022-12-20T08:19:41;-0.50;99.90
48206;DHT22;33995;48.202;16.260;2022-12-20T08:22:09;-0.50;99.90
48206;DHT22;33995;48.202;16.260;2022-12-20T08:24:41;-0.50;99.90
48206;DHT22;33995;48.202;16.260;2022-12-20T08:27:08;-0.40;99.90
48206;DHT22;33995;48.202;16.260;2022-12-20T08:29:40;-0.50;99.90
48206;DHT22;33995;48.202;16.260;2022-12-20T08:32:12;-0.50;99.90
48206;DHT22;33995;48.202;16.260;2022-12-20T08:34:43;-0.60;99.90
48206;DHT22;33995;48.202;16.260;2022-12-20T08:37:12;-0.60;99.90
48206;DHT22;33995;48.202;16.260;2022-12-20T08:39:43;-0.50;99.90
48206;DHT22;33995;48.202;16.260;2022-12-20T08:42:13;-0.60;99.90
48206;DHT22;33995;48.202;16.260;2022-12-20T08:44:41;-0.50;99.90
48206;DHT22;33995;48.202;16.260;2022-12-20T08:47:12;-0.50;99.90
48206;DHT22;33995;48.202;16.260;2022-12-20T08:49:41;-0.60;99.90
48206;DHT22;33995;48.202;16.260;2022-12-20T08:52:15;-0.60;99.90
48206;DHT22;33995;48.202;16.260;2022-12-20T08:54:42;-0.60;99.90
48206;DHT22;33995;48.202;16.260;2022-12-20T08:57:11;-0.50;99.90
48206;DHT22;33995;48.202;16.260;2022-12-20T08:59:38;-0.50;99.90
48206;DHT22;33995;48.202;16.260;2022-12-20T09:02:11;-0.50;99.90
48206;DHT22;33995;48.202;16.260;2022-12-20T09:04:39;-0.50;99.90
48206;DHT22;33995;48.202;16.260;2022-12-20T09:07:08;-0.60;99.90
48206;DHT22;33995;48.202;16.260;2022-12-20T09:09:42;-0.50;99.90
48206;DHT22;33995;48.202;16.260;2022-12-20T09:12:10;-0.50;99.90
48206;DHT22;33995;48.202;16.260;2022-12-20T09:14:41;-0.50;99.90
48206;DHT22;33995;48.202;16.260;2022-12-20T09:17:13;-0.50;99.90
48206;DHT22;33995;48.202;16.260;2022-12-20T09:19:41;-0.40;99.90
48206;DHT22;33995;48.202;16.260;2022-12-20T09:22:08;-0.40;99.90
48206;DHT22;33995;48.202;16.260;2022-12-20T09:24:36;-0.40;99.90
48206;DHT22;33995;48.202;16.260;2022-12-20T09:27:06;-0.50;99.90
48206;DHT22;33995;48.202;16.260;2022-12-20T09:29:35;-0.40;99.90
48206;DHT22;33995;48.202;16.260;2022-12-20T09:32:03;-0.40;99.90
48206;DHT22;33995;48.202;16.260;2022-12-20T09:34:33;-0.50;99.90
48206;DHT22;33995;48.202;16.260;2022-12-20T09:37:02;-0.60;99.90
48206;DHT22;33995;48.202;16.260;2022-12-20T09:39:29;-0.50;99.90
48206;DHT22;33995;48.202;16.260;2022-12-20T09:42:06;-0.50;99.90
48206;DHT22;33995;48.202;16.260;2022-12-20T09:44:38;-0.50;99.90
48206;DHT22;33995;48.202;16.260;2022-12-20T09:47:15;-0.60;99.90
48206;DHT22;33995;48.202;16.260;2022-12-20T09:49:48;-0.50;99.90
48206;DHT22;33995;48.202;16.260;2022-12-20T09:55:15;-0.40;99.90
48206;DHT22;33995;48.202;16.260;2022-12-20T09:58:17;-0.40;99.90
48206;DHT22;33995;48.202;16.260;2022-12-20T10:00:49;-0.40;99.90
48206;DHT22;33995;48.202;16.260;2022-12-20T10:03:32;-0.50;99.90
48206;DHT22;33995;48.202;16.260;2022-12-20T10:06:20;-0.50;99.90
48206;DHT22;33995;48.202;16.260;2022-12-20T10:24:06;-0.40;99.90
48206;DHT22;33995;48.202;16.260;2022-12-20T10:26:41;-0.40;99.90
48206;DHT22;33995;48.202;16.260;2022-12-20T10:29:12;-0.30;99.90
48206;DHT22;33995;48.202;16.260;2022-12-20T10:31:40;-0.30;99.90
48206;DHT22;33995;48.202;16.260;2022-12-20T10:34:08;-0.20;99.90
48206;DHT22;33995;48.202;16.260;2022-12-20T10:36:38;-0.40;99.90
48206;DHT22;33995;48.202;16.260;2022-12-20T10:39:08;-0.50;99.90
48206;DHT22;33995;48.202;16.260;2022-12-20T10:46:57;-0.30;99.90
48206;DHT22;33995;48.202;16.260;2022-12-20T10:49:37;-0.30;99.90
48206;DHT22;33995;48.202;16.260;2022-12-20T10:52:14;-0.30;99.90
48206;DHT22;33995;48.202;16.260;2022-12-20T10:54:45;-0.30;99.90
48206;DHT22;33995;48.202;16.260;2022-12-20T10:57:29;-0.40;99.90
48206;DHT22;33995;48.202;16.260;2022-12-20T11:00:02;-0.40;99.90
48206;DHT22;33995;48.202;16.260;2022-12-20T11:02:38;-0.40;99.90
48206;DHT22;33995;48.202;16.260;2022-12-20T11:05:22;-0.30;99.90
48206;DHT22;33995;48.202;16.260;2022-12-20T11:07:57;-0.30;99.90
48206;DHT22;33995;48.202;16.260;2022-12-20T11:10:46;-0.30;99.90
48206;DHT22;33995;48.202;16.260;2022-12-20T11:13:24;-0.30;99.90
48206;DHT22;33995;48.202;16.260;2022-12-20T11:15:56;-0.30;99.90
48206;DHT22;33995;48.202;16.260;2022-12-20T11:18:42;-0.30;99.90
48206;DHT22;33995;48.202;16.260;2022-12-20T11:27:39;-0.50;99.90
48206;DHT22;33995;48.202;16.260;2022-12-20T11:30:23;-0.40;99.90
48206;DHT22;33995;48.202;16.260;2022-12-20T11:33:21;-0.40;99.90
48206;DHT22;33995;48.202;16.260;2022-12-20T11:36:02;-0.30;99.90
48206;DHT22;33995;48.202;16.260;2022-12-20T11:45:21;-0.40;99.90
48206;DHT22;33995;48.202;16.260;2022-12-20T11:48:17;-0.30;99.90
48206;DHT22;33995;48.202;16.260;2022-12-20T11:51:20;-0.20;99.90
48206;DHT22;33995;48.202;16.260;2022-12-20T11:56:47;-0.50;99.90
48206;DHT22;33995;48.202;16.260;2022-12-20T11:59:56;-0.50;99.90
48206;DHT22;33995;48.202;16.260;2022-12-20T12:02:34;-0.40;99.90
48206;DHT22;33995;48.202;16.260;2022-12-20T12:08:08;-0.50;99.90
48206;DHT22;33995;48.202;16.260;2022-12-20T12:11:03;-0.40;99.90
48206;DHT22;33995;48.202;16.260;2022-12-20T12:14:00;-0.40;99.90
48206;DHT22;33995;48.202;16.260;2022-12-20T12:16:38;-0.40;99.90
48206;DHT22;33995;48.202;16.260;2022-12-20T12:19:12;-0.50;99.90
48206;DHT22;33995;48.202;16.260;2022-12-20T12:22:04;-0.40;99.90
48206;DHT22;33995;48.202;16.260;2022-12-20T12:24:44;-0.40;99.90
48206;DHT22;33995;48.202;16.260;2022-12-20T12:27:26;-0.40;99.90
48206;DHT22;33995;48.202;16.260;2022-12-20T12:29:56;-0.30;99.90
48206;DHT22;33995;48.202;16.260;2022-12-20T12:32:52;-0.40;99.90
48206;DHT22;33995;48.202;16.260;2022-12-20T12:45:44;-0.30;99.90
48206;DHT22;33995;48.202;16.260;2022-12-20T12:48:34;-0.30;99.90
48206;DHT22;33995;48.202;16.260;2022-12-20T12:51:06;-0.50;99.90
48206;DHT22;33995;48.202;16.260;2022-12-20T12:53:41;-0.50;99.90
48206;DHT22;33995;48.202;16.260;2022-12-20T12:56:29;-0.40;99.90
48206;DHT22;33995;48.202;16.260;2022-12-20T13:07:50;-0.30;99.90
48206;DHT22;33995;48.202;16.260;2022-12-20T13:13:00;-0.30;99.90
48206;DHT22;33995;48.202;16.260;2022-12-20T13:20:40;-0.30;99.90
48206;DHT22;33995;48.202;16.260;2022-12-20T13:23:15;-0.20;99.90
48206;DHT22;33995;48.202;16.260;2022-12-20T13:25:49;-0.20;99.90
48206;DHT22;33995;48.202;16.260;2022-12-20T13:33:47;-0.20;99.90
48206;DHT22;33995;48.202;16.260;2022-12-20T13:36:35;-0.20;99.90
48206;DHT22;33995;48.202;16.260;2022-12-20T13:39:29;-0.10;99.90
48206;DHT22;33995;48.202;16.260;2022-12-20T13:42:18;-0.20;99.90
48206;DHT22;33995;48.202;16.260;2022-12-20T13:44:52;-0.20;99.90
48206;DHT22;33995;48.202;16.260;2022-12-20T13:47:33;-0.30;99.90
48206;DHT22;33995;48.202;16.260;2022-12-20T13:50:25;-0.30;99.90
48206;DHT22;33995;48.202;16.260;2022-12-20T13:52:55;-0.30;99.90
48206;DHT22;33995;48.202;16.260;2022-12-20T13:55:39;-0.30;99.90
48206;DHT22;33995;48.202;16.260;2022-12-20T13:58:30;-0.30;99.90
48206;DHT22;33995;48.202;16.260;2022-12-20T14:01:05;-0.40;99.90
48206;DHT22;33995;48.202;16.260;2022-12-20T14:03:41;-0.40;99.90
48206;DHT22;33995;48.202;16.260;2022-12-20T14:06:13;-0.40;99.90
48206;DHT22;33995;48.202;16.260;2022-12-20T14:08:47;-0.40;99.90
48206;DHT22;33995;48.202;16.260;2022-12-20T14:11:30;-0.50;99.90
48206;DHT22;33995;48.202;16.260;2022-12-20T14:14:10;-0.30;99.90
48206;DHT22;33995;48.202;16.260;2022-12-20T14:16:42;-0.20;99.90
48206;DHT22;33995;48.202;16.260;2022-12-20T14:19:14;-0.20;99.90
48206;DHT22;33995;48.202;16.260;2022-12-20T14:21:44;-0.20;99.90
48206;DHT22;33995;48.202;16.260;2022-12-20T14:24:19;-0.30;99.90
48206;DHT22;33995;48.202;16.260;2022-12-20T14:26:51;-0.30;99.90
48206;DHT22;33995;48.202;16.260;2022-12-20T14:29:27;-0.30;99.90
48206;DHT22;33995;48.202;16.260;2022-12-20T14:31:57;-0.30;99.90
48206;DHT22;33995;48.202;16.260;2022-12-20T14:34:30;-0.20;99.90
48206;DHT22;33995;48.202;16.260;2022-12-20T14:40:19;-0.10;99.90
48206;DHT22;33995;48.202;16.260;2022-12-20T14:42:47;-0.10;99.90
48206;DHT22;33995;48.202;16.260;2022-12-20T14:45:24;-0.30;99.90
48206;DHT22;33995;48.202;16.260;2022-12-20T14:48:14;-0.30;99.90
48206;DHT22;33995;48.202;16.260;2022-12-20T14:50:51;-0.30;99.90
48206;DHT22;33995;48.202;16.260;2022-12-20T14:53:23;-0.30;99.90
48206;DHT22;33995;48.202;16.260;2022-12-20T14:55:58;-0.20;99.90
48206;DHT22;33995;48.202;16.260;2022-12-20T14:58:33;-0.30;99.90
48206;DHT22;33995;48.202;16.260;2022-12-20T15:01:17;-0.30;99.90
48206;DHT22;33995;48.202;16.260;2022-12-20T15:03:54;-0.30;99.90
48206;DHT22;33995;48.202;16.260;2022-12-20T15:06:53;-0.20;99.90
48206;DHT22;33995;48.202;16.260;2022-12-20T15:09:24;-0.30;99.90
48206;DHT22;33995;48.202;16.260;2022-12-20T15:11:55;-0.30;99.90
48206;DHT22;33995;48.202;16.260;2022-12-20T15:14:44;-0.10;99.90
48206;DHT22;33995;48.202;16.260;2022-12-20T15:17:16;-0.20;99.90
48206;DHT22;33995;48.202;16.260;2022-12-20T15:19:43;-0.20;99.90
48206;DHT22;33995;48.202;16.260;2022-12-20T15:22:17;-0.20;99.90
48206;DHT22;33995;48.202;16.260;2022-12-20T15:24:47;-0.20;99.90
48206;DHT22;33995;48.202;16.260;2022-12-20T15:27:21;-0.30;99.90
48206;DHT22;33995;48.202;16.260;2022-12-20T15:29:54;-0.30;99.90
48206;DHT22;33995;48.202;16.260;2022-12-20T15:32:27;-0.30;99.90
48206;DHT22;33995;48.202;16.260;2022-12-20T15:34:56;-0.30;99.90
48206;DHT22;33995;48.202;16.260;2022-12-20T15:37:23;-0.20;99.90
48206;DHT22;33995;48.202;16.260;2022-12-20T15:39:54;-0.30;99.90
48206;DHT22;33995;48.202;16.260;2022-12-20T15:42:24;-0.30;99.90
48206;DHT22;33995;48.202;16.260;2022-12-20T15:44:58;-0.30;99.90
48206;DHT22;33995;48.202;16.260;2022-12-20T15:47:28;-0.30;99.90
48206;DHT22;33995;48.202;16.260;2022-12-20T15:49:58;-0.30;99.90
48206;DHT22;33995;48.202;16.260;2022-12-20T15:52:26;-0.30;99.90
48206;DHT22;33995;48.202;16.260;2022-12-20T15:54:57;-0.20;99.90
48206;DHT22;33995;48.202;16.260;2022-12-20T15:57:24;-0.20;99.90
48206;DHT22;33995;48.202;16.260;2022-12-20T15:59:54;-0.30;99.90
48206;DHT22;33995;48.202;16.260;2022-12-20T16:02:40;-0.30;99.90
48206;DHT22;33995;48.202;16.260;2022-12-20T16:05:11;-0.30;99.90
48206;DHT22;33995;48.202;16.260;2022-12-20T16:07:44;-0.20;99.90
48206;DHT22;33995;48.202;16.260;2022-12-20T16:10:15;-0.20;99.90
48206;DHT22;33995;48.202;16.260;2022-12-20T16:12:44;-0.20;99.90
48206;DHT22;33995;48.202;16.260;2022-12-20T16:15:22;-0.20;99.90
48206;DHT22;33995;48.202;16.260;2022-12-20T16:17:51;-0.20;99.90
48206;DHT22;33995;48.202;16.260;2022-12-20T16:20:22;-0.30;99.90
48206;DHT22;33995;48.202;16.260;2022-12-20T16:22:54;-0.30;99.90
48206;DHT22;33995;48.202;16.260;2022-12-20T16:25:35;-0.20;99.90
48206;DHT22;33995;48.202;16.260;2022-12-20T16:28:03;-0.20;99.90
48206;DHT22;33995;48.202;16.260;2022-12-20T16:30:31;-0.30;99.90
48206;DHT22;33995;48.202;16.260;2022-12-20T16:33:00;-0.30;99.90
48206;DHT22;33995;48.202;16.260;2022-12-20T16:35:34;-0.40;99.90
48206;DHT22;33995;48.202;16.260;2022-12-20T16:38:05;-0.40;99.90
48206;DHT22;33995;48.202;16.260;2022-12-20T16:40:35;-0.40;99.90
48206;DHT22;33995;48.202;16.260;2022-12-20T16:43:13;-0.30;99.90
48206;DHT22;33995;48.202;16.260;2022-12-20T16:45:45;-0.40;99.90
48206;DHT22;33995;48.202;16.260;2022-12-20T16:48:16;-0.30;99.90
48206;DHT22;33995;48.202;16.260;2022-12-20T16:50:54;-0.30;99.90
48206;DHT22;33995;48.202;16.260;2022-12-20T16:53:27;-0.20;99.90
48206;DHT22;33995;48.202;16.260;2022-12-20T16:56:18;-0.30;99.90
48206;DHT22;33995;48.202;16.260;2022-12-20T16:58:47;-0.30;99.90
48206;DHT22;33995;48.202;16.260;2022-12-20T17:01:40;-0.30;99.90
48206;DHT22;33995;48.202;16.260;2022-12-20T17:04:16;-0.30;99.90
48206;DHT22;33995;48.202;16.260;2022-12-20T17:06:45;-0.30;99.90
48206;DHT22;33995;48.202;16.260;2022-12-20T17:09:13;-0.30;99.90
48206;DHT22;33995;48.202;16.260;2022-12-20T17:11:53;-0.30;99.90
48206;DHT22;33995;48.202;16.260;2022-12-20T17:14:23;-0.20;99.90
48206;DHT22;33995;48.202;16.260;2022-12-20T17:16:53;-0.20;99.90
48206;DHT22;33995;48.202;16.260;2022-12-20T17:19:23;-0.20;99.90
48206;DHT22;33995;48.202;16.260;2022-12-20T17:21:52;-0.20;99.90
48206;DHT22;33995;48.202;16.260;2022-12-20T17:24:37;-0.20;99.90
48206;DHT22;33995;48.202;16.260;2022-12-20T17:27:08;-0.20;99.90
48206;DHT22;33995;48.202;16.260;2022-12-20T17:29:49;-0.30;99.90
48206;DHT22;33995;48.202;16.260;2022-12-20T17:32:22;-0.20;99.90
48206;DHT22;33995;48.202;16.260;2022-12-20T17:34:55;-0.20;99.90